East Meredith, New York
Current Conditions -  °F | °C
As of 5:55 PM on Wednesday 22 Oct 2014 (Local Time) from KNY0 Reporting Station
Overcast Overcast  
Wind Chill:   Ceiling: 4200
Heat Index:   Visibility: 10mi
Dew Point:   Wind: 10mph
Humidity: 91%   Direction: 20°NNE
Pressure: 30.02"   Gusts: 18mph
Location:  42.42°N, 74.89°W
Report Text: KNY0 222155Z AUTO 02009G16KT 10SM SCT019 BKN042 OVC055 09/07 A3002 RMK AO2 P0003 T00850071
Loading
Personal Weather Stations






























Interactive Weather Map
Tropical Storm Tracking
New forecast layout! Learn more

10-Day Weather Forecast

Advertisements
Track Severe Weather on mobile